Time;durP1;ratioP1;P1;durP2;ratioP2;P2;SDS_P1;SDS_P2;PMS_P1;PMS_P2;Temp;Humidity;BMP_temperature;BMP_pressure;BME280_temperature;BME280_humidity;BME280_pressure;Samples;Min_cycle;Max_cycle;Signal;HPM_P1;HPM_P2
2022/04/21 00:01:04;;;;;;;7.28;6.70;;;10.90;99.90;;;;;;4195574;28;20947;-44
2022/04/21 00:03:06;;;;;;;7.47;6.88;;;10.90;99.90;;;;;;4195656;28;20393;-46
2022/04/21 00:05:11;;;;;;;5.65;5.40;;;11.00;99.90;;;;;;4195612;28;20036;-45
2022/04/21 00:07:13;;;;;;;5.93;5.40;;;11.00;99.90;;;;;;4198388;28;20040;-44
2022/04/21 00:09:15;;;;;;;5.57;5.32;;;11.10;99.90;;;;;;4220167;28;20063;-43
2022/04/21 00:11:17;;;;;;;6.22;5.82;;;11.10;99.90;;;;;;4196382;28;20086;-44
2022/04/21 00:13:19;;;;;;;7.22;6.60;;;11.10;99.90;;;;;;4203041;28;20044;-45
2022/04/21 00:15:22;;;;;;;6.43;5.45;;;11.00;99.90;;;;;;4195541;28;20139;-44
2022/04/21 00:17:24;;;;;;;6.93;6.50;;;10.90;99.90;;;;;;4201898;28;20124;-44
2022/04/21 00:19:26;;;;;;;7.45;6.65;;;10.80;99.90;;;;;;4202979;28;20528;-46
2022/04/21 00:23:26;;;;;;;8.18;6.28;;;10.70;99.90;;;;;;4195533;28;20040;-44
2022/04/21 00:23:50;;;;;;;6.13;5.70;;;10.70;99.90;;;;;;4195220;28;20090;-44
2022/04/21 00:25:58;;;;;;;5.88;5.50;;;10.70;99.90;;;;;;4195353;28;20037;-44
2022/04/21 00:28:01;;;;;;;7.40;7.00;;;10.50;99.90;;;;;;4195543;28;20117;-42
2022/04/21 00:30:06;;;;;;;4.95;4.85;;;10.40;99.90;;;;;;4195344;28;20048;-43
2022/04/21 00:32:08;;;;;;;5.78;5.38;;;10.30;99.90;;;;;;4195240;28;20484;-44
2022/04/21 00:34:11;;;;;;;8.73;5.43;;;10.30;99.90;;;;;;4195277;28;20037;-44
2022/04/21 00:36:13;;;;;;;6.25;5.20;;;10.30;99.90;;;;;;4195066;28;20381;-45
2022/04/21 00:38:15;;;;;;;5.50;4.82;;;10.30;99.90;;;;;;4195050;28;20040;-44
2022/04/21 00:40:18;;;;;;;;;;;10.20;99.90;;;;;;4195564;28;20380;-46
2022/04/21 00:42:20;;;;;;;4.35;4.05;;;10.10;99.90;;;;;;4195248;28;20330;-44
2022/04/21 00:44:22;;;;;;;5.10;3.95;;;10.20;99.90;;;;;;4198217;28;20086;-44
2022/04/21 00:46:25;;;;;;;6.28;5.22;;;10.20;99.90;;;;;;4194907;28;20514;-43
2022/04/21 00:48:28;;;;;;;5.47;5.03;;;10.20;99.90;;;;;;4195181;28;20549;-44
2022/04/21 00:50:35;;;;;;;6.30;5.13;;;10.30;99.90;;;;;;4207499;28;20052;-43
2022/04/21 00:52:40;;;;;;;5.90;5.45;;;10.30;99.90;;;;;;4194818;28;20047;-44
2022/04/21 00:54:42;;;;;;;6.30;5.75;;;10.20;99.90;;;;;;4194869;28;20101;-43
2022/04/21 00:56:45;;;;;;;5.03;4.82;;;10.10;99.90;;;;;;4193518;28;20045;-43
2022/04/21 00:58:48;;;;;;;9.35;6.43;;;10.10;99.90;;;;;;4193362;28;20036;-43
2022/04/21 01:00:50;;;;;;;5.40;5.13;;;10.10;99.90;;;;;;4194592;28;20044;-43
2022/04/21 01:02:53;;;;;;;6.30;5.80;;;10.10;99.90;;;;;;4194820;28;20040;-43
2022/04/21 01:04:55;;;;;;;6.82;5.35;;;10.10;99.90;;;;;;4194588;28;20090;-45
2022/04/21 01:06:57;;;;;;;;;;;10.10;99.90;;;;;;4194626;28;20040;-47
2022/04/21 01:08:59;;;;;;;6.20;5.43;;;10.20;99.90;;;;;;4219195;28;19924;-44
2022/04/21 01:11:02;;;;;;;5.43;5.03;;;10.20;99.90;;;;;;4210723;28;20044;-44
2022/04/21 01:13:06;;;;;;;;;;;10.30;99.90;;;;;;4195089;28;20048;-44
2022/04/21 01:15:08;;;;;;;5.25;4.95;;;10.10;99.90;;;;;;4210283;28;20488;-44
2022/04/21 01:17:11;;;;;;;4.88;4.68;;;10.10;99.90;;;;;;4199970;28;20052;-44
2022/04/21 01:19:14;;;;;;;6.20;5.85;;;10.20;99.90;;;;;;4202295;28;20032;-44
2022/04/21 01:21:17;;;;;;;4.38;4.18;;;10.20;99.90;;;;;;4194601;28;20035;-43
2022/04/21 01:23:19;;;;;;;4.97;4.72;;;10.10;99.90;;;;;;4193226;28;20352;-44
2022/04/21 01:25:22;;;;;;;5.75;5.43;;;10.10;99.90;;;;;;4194247;28;20480;-43
2022/04/21 01:27:27;;;;;;;5.68;5.38;;;10.20;99.90;;;;;;4194561;28;20066;-44
2022/04/21 01:29:29;;;;;;;5.40;5.00;;;10.20;99.90;;;;;;4193806;28;20048;-44
2022/04/21 01:31:32;;;;;;;;;;;10.30;99.90;;;;;;4194631;28;20377;-43
2022/04/21 01:33:34;;;;;;;6.78;6.40;;;10.30;99.90;;;;;;4194511;28;20036;-45
2022/04/21 01:35:37;;;;;;;7.93;6.18;;;10.30;99.90;;;;;;4194232;28;20094;-44
2022/04/21 01:42:21;;;;;;;6.00;5.35;;;10.30;99.90;;;;;;4194049;28;20070;-44
2022/04/21 01:44:23;;;;;;;6.50;5.93;;;10.30;99.90;;;;;;4194375;28;20579;-44
2022/04/21 01:46:25;;;;;;;6.65;6.32;;;10.30;99.90;;;;;;4193953;28;20053;-45
2022/04/21 01:48:28;;;;;;;5.90;5.70;;;10.30;99.90;;;;;;4193800;28;20039;-44
2022/04/21 01:50:30;;;;;;;;;;;10.30;99.90;;;;;;4204031;28;20033;-44
2022/04/21 01:52:33;;;;;;;6.25;5.85;;;10.30;99.90;;;;;;4194262;28;19924;-44
2022/04/21 01:54:35;;;;;;;8.40;6.28;;;10.30;99.90;;;;;;4193990;28;20045;-43
2022/04/21 01:56:37;;;;;;;5.82;5.38;;;10.20;99.90;;;;;;4193863;28;20131;-44
2022/04/21 01:58:40;;;;;;;6.55;6.00;;;10.20;99.90;;;;;;4193601;28;20589;-43
2022/04/21 02:00:42;;;;;;;6.68;6.18;;;10.20;99.90;;;;;;4193781;28;20442;-44
2022/04/21 02:02:45;;;;;;;6.53;5.97;;;10.30;99.90;;;;;;4193801;28;20043;-45
2022/04/21 02:04:47;;;;;;;6.18;5.90;;;10.40;99.90;;;;;;4193841;28;20539;-45
2022/04/21 02:06:50;;;;;;;5.80;5.28;;;10.40;99.90;;;;;;4204888;28;20044;-46
2022/04/21 02:08:55;;;;;;;5.50;5.07;;;10.40;99.90;;;;;;4214748;28;20044;-44
2022/04/21 02:10:57;;;;;;;5.90;5.60;;;10.40;99.90;;;;;;4193939;28;20504;-44
2022/04/21 02:13:00;;;;;;;5.82;5.38;;;10.40;99.90;;;;;;4210070;28;20068;-45
2022/04/21 02:15:02;;;;;;;6.47;6.05;;;10.40;99.90;;;;;;4193652;28;20337;-45
2022/04/21 02:17:06;;;;;;;;;;;10.40;99.90;;;;;;4192713;28;20044;-43
2022/04/21 02:19:08;;;;;;;6.57;6.13;;;10.50;99.90;;;;;;4199800;27;19924;-44
2022/04/21 02:21:10;;;;;;;6.50;6.18;;;10.40;99.90;;;;;;4193478;28;20117;-45
2022/04/21 02:23:12;;;;;;;6.40;6.10;;;10.50;99.90;;;;;;4201386;28;20040;-45
2022/04/21 02:25:16;;;;;;;6.82;6.53;;;10.50;99.90;;;;;;4204417;28;20479;-45
2022/04/21 02:27:18;;;;;;;8.88;6.22;;;10.40;99.90;;;;;;4193921;28;20176;-46
2022/04/21 02:29:20;;;;;;;7.88;7.20;;;10.40;99.90;;;;;;4193003;28;20400;-46
2022/04/21 02:31:22;;;;;;;5.97;5.68;;;10.40;99.90;;;;;;4193820;28;20044;-49
2022/04/21 02:33:24;;;;;;;5.88;5.47;;;10.30;99.90;;;;;;4193427;28;20411;-47
2022/04/21 02:35:27;;;;;;;6.65;6.20;;;10.30;99.90;;;;;;4193043;28;20048;-45
2022/04/21 02:37:38;;;;;;;6.90;6.10;;;10.20;99.90;;;;;;4193680;28;20094;-46
2022/04/21 02:39:40;;;;;;;6.70;5.50;;;10.30;99.90;;;;;;4192124;28;20086;-46
2022/04/21 02:41:42;;;;;;;6.68;6.38;;;10.30;99.90;;;;;;4193515;28;20033;-45
2022/04/21 02:43:44;;;;;;;6.57;6.10;;;10.30;99.90;;;;;;4205727;28;20131;-46
2022/04/21 02:45:47;;;;;;;6.85;6.53;;;10.30;99.90;;;;;;4206636;28;20041;-46
2022/04/21 02:47:49;;;;;;;7.82;7.47;;;10.30;99.90;;;;;;4193492;28;20090;-46
2022/04/21 02:49:53;;;;;;;7.05;6.82;;;10.20;99.90;;;;;;4199732;28;20239;-47
2022/04/21 02:51:56;;;;;;;7.10;6.85;;;10.20;99.90;;;;;;4193064;28;20067;-47
2022/04/21 02:58:43;;;;;;;7.63;7.43;;;10.10;99.90;;;;;;4193241;28;20123;-44
2022/04/21 03:00:45;;;;;;;7.75;7.35;;;10.00;99.90;;;;;;4192952;28;20396;-46
2022/04/21 03:02:47;;;;;;;7.75;7.18;;;9.90;99.90;;;;;;4213111;28;20032;-45
2022/04/21 03:04:51;;;;;;;8.68;8.27;;;10.00;99.90;;;;;;4204613;28;20123;-46
2022/04/21 03:06:53;;;;;;;8.68;8.07;;;10.00;99.90;;;;;;4193357;28;20069;-47
2022/04/21 03:08:55;;;;;;;9.50;8.90;;;10.00;99.90;;;;;;4210879;28;20041;-46
2022/04/21 03:10:57;;;;;;;8.65;8.15;;;10.00;99.90;;;;;;4193685;28;20036;-46
2022/04/21 03:12:59;;;;;;;8.88;8.30;;;10.00;99.90;;;;;;4207589;28;20427;-46
2022/04/21 03:15:01;;;;;;;8.40;7.88;;;10.00;99.90;;;;;;4192832;28;20408;-45
2022/04/21 03:17:05;;;;;;;7.75;7.32;;;10.10;99.90;;;;;;4193272;28;20045;-44
2022/04/21 03:19:07;;;;;;;8.38;7.85;;;10.00;99.90;;;;;;4196164;28;20165;-44
2022/04/21 03:25:50;;;;;;;9.20;8.73;;;10.00;99.90;;;;;;4193197;28;20037;-44
2022/04/21 03:27:53;;;;;;;7.38;7.07;;;10.10;99.90;;;;;;4193265;28;20052;-44
2022/04/21 03:29:56;;;;;;;8.43;8.02;;;10.00;99.90;;;;;;4195969;28;20047;-45
2022/04/21 03:31:58;;;;;;;8.23;7.60;;;10.00;99.90;;;;;;4196287;28;20400;-47
2022/04/21 03:34:02;;;;;;;8.35;8.05;;;10.00;99.90;;;;;;4195958;28;20044;-44
2022/04/21 03:36:04;;;;;;;8.77;8.27;;;9.90;99.90;;;;;;4196100;28;20127;-44
2022/04/21 03:38:10;;;;;;;8.90;8.50;;;9.90;99.90;;;;;;4196240;28;20539;-44
2022/04/21 03:40:12;;;;;;;8.73;8.20;;;9.90;99.90;;;;;;4206452;28;20040;-44
2022/04/21 03:42:19;;;;;;;8.98;8.68;;;9.90;99.90;;;;;;4197948;28;20502;-44
2022/04/21 03:44:22;;;;;;;10.38;9.70;;;9.90;99.90;;;;;;4218924;28;20039;-44
2022/04/21 03:46:24;;;;;;;9.43;8.73;;;9.90;99.90;;;;;;4204115;28;20036;-45
2022/04/21 03:48:26;;;;;;;8.98;8.50;;;9.90;99.90;;;;;;4195836;28;20033;-44
2022/04/21 03:50:31;;;;;;;10.45;9.80;;;9.90;99.90;;;;;;4198508;28;20044;-44
2022/04/21 03:52:33;;;;;;;10.05;9.23;;;9.90;99.90;;;;;;4195840;28;20691;-44
2022/04/21 03:54:36;;;;;;;9.65;9.10;;;9.90;99.90;;;;;;4195738;28;20040;-43
2022/04/21 03:56:38;;;;;;;9.10;8.50;;;9.90;99.90;;;;;;4195746;28;20041;-44
2022/04/21 03:58:40;;;;;;;10.13;9.68;;;9.80;99.90;;;;;;4197164;28;20040;-44
2022/04/21 04:00:42;;;;;;;10.02;9.52;;;9.80;99.90;;;;;;4210944;28;20028;-44
2022/04/21 04:02:44;;;;;;;10.95;10.25;;;9.80;99.90;;;;;;4198797;28;20093;-44
2022/04/21 04:04:47;;;;;;;9.02;8.52;;;9.80;99.90;;;;;;4197027;28;20545;-44
2022/04/21 04:11:31;;;;;;;9.65;9.05;;;9.80;99.90;;;;;;4200559;28;20115;-44
2022/04/21 04:13:33;;;;;;;9.85;9.35;;;9.80;99.90;;;;;;4203829;28;20502;-44
2022/04/21 04:15:35;;;;;;;10.70;10.00;;;9.80;99.90;;;;;;4195220;28;20037;-43
2022/04/21 04:17:37;;;;;;;11.43;10.77;;;9.80;99.90;;;;;;4195950;28;20314;-43
2022/04/21 04:19:40;;;;;;;10.70;10.20;;;9.80;99.90;;;;;;4195540;28;20106;-43
2022/04/21 04:21:42;;;;;;;10.90;10.18;;;9.80;99.90;;;;;;4195213;28;20045;-44
2022/04/21 04:23:44;;;;;;;11.20;10.40;;;9.80;99.90;;;;;;4208542;28;20524;-44
2022/04/21 04:25:46;;;;;;;11.02;10.35;;;9.80;99.90;;;;;;4195589;28;20036;-44
2022/04/21 04:27:49;;;;;;;;;;;9.80;99.90;;;;;;4195769;28;20037;-45
2022/04/21 04:29:55;;;;;;;9.77;9.30;;;9.80;99.90;;;;;;4195104;28;19924;-45
2022/04/21 04:31:57;;;;;;;9.77;9.20;;;9.80;99.90;;;;;;4195383;28;20127;-44
2022/04/21 04:34:00;;;;;;;10.90;9.98;;;9.80;99.90;;;;;;4195295;28;20044;-45
2022/04/21 04:36:07;;;;;;;10.38;9.88;;;9.70;99.90;;;;;;4194904;28;20045;-44
2022/04/21 04:38:09;;;;;;;10.55;9.80;;;9.70;99.90;;;;;;4195117;28;20267;-44
2022/04/21 04:40:12;;;;;;;10.00;9.35;;;9.70;99.90;;;;;;4199271;28;20202;-43
2022/04/21 04:42:16;;;;;;;10.55;9.93;;;9.70;99.90;;;;;;4194929;28;20434;-45
2022/04/21 04:44:19;;;;;;;10.40;9.77;;;9.70;99.90;;;;;;4217258;28;20040;-43
2022/04/21 04:46:37;;;;;;;9.85;8.98;;;9.80;99.90;;;;;;4200414;28;20701;-43
2022/04/21 04:48:39;;;;;;;8.85;8.45;;;9.80;99.90;;;;;;4196428;28;20048;-44
2022/04/21 04:50:42;;;;;;;10.48;9.80;;;9.80;99.90;;;;;;4197011;28;20036;-43
2022/04/21 04:52:44;;;;;;;9.50;8.85;;;9.80;99.90;;;;;;4202177;28;20174;-43
2022/04/21 04:54:46;;;;;;;10.10;9.80;;;9.80;99.90;;;;;;4196610;28;20044;-45
2022/04/21 04:56:48;;;;;;;10.48;9.82;;;9.90;99.90;;;;;;4194977;28;20057;-43
2022/04/21 04:58:51;;;;;;;11.43;10.68;;;9.80;99.90;;;;;;4194994;28;20097;-44
2022/04/21 05:00:54;;;;;;;10.00;9.25;;;9.80;99.90;;;;;;4194403;28;20388;-44
2022/04/21 05:02:56;;;;;;;;;;;9.80;99.90;;;;;;4195314;28;20482;-44
2022/04/21 05:04:58;;;;;;;9.65;8.85;;;9.80;99.90;;;;;;4194587;28;19924;-45
2022/04/21 05:07:00;;;;;;;9.88;9.38;;;9.80;99.90;;;;;;4194324;28;20127;-44
2022/04/21 05:09:04;;;;;;;8.93;8.20;;;9.80;99.90;;;;;;4194646;28;20040;-44
2022/04/21 05:11:07;;;;;;;9.00;8.60;;;9.80;99.90;;;;;;4195939;28;20058;-46
2022/04/21 05:13:09;;;;;;;8.95;8.65;;;9.80;99.90;;;;;;4205541;28;20488;-44
2022/04/21 05:15:11;;;;;;;8.80;8.43;;;9.80;99.90;;;;;;4194839;28;20040;-44
2022/04/21 05:17:13;;;;;;;7.85;7.55;;;9.90;99.90;;;;;;4196700;28;20048;-45
2022/04/21 05:19:19;;;;;;;7.43;7.20;;;9.90;99.90;;;;;;4198214;28;20072;-44
2022/04/21 05:21:22;;;;;;;7.78;7.55;;;9.90;99.90;;;;;;4198916;28;20044;-44
2022/04/21 05:23:25;;;;;;;;;;;9.80;99.90;;;;;;4192067;28;20551;-44
2022/04/21 05:25:31;;;;;;;9.43;7.22;;;9.80;99.90;;;;;;4194430;28;19924;-45
2022/04/21 05:27:34;;;;;;;8.45;7.85;;;9.80;99.90;;;;;;4194406;28;20044;-43
2022/04/21 05:32:02;;;;;;;9.95;9.55;;;9.80;99.90;;;;;;4194028;28;20392;-47
2022/04/21 05:34:04;;;;;;;8.82;8.43;;;9.80;99.90;;;;;;4204456;28;20041;-46
2022/04/21 05:36:07;;;;;;;9.55;9.00;;;9.90;99.90;;;;;;4194199;28;20115;-45
2022/04/21 05:38:10;;;;;;;8.55;8.10;;;9.80;99.90;;;;;;4194558;28;20037;-45
2022/04/21 05:40:12;;;;;;;;;;;9.90;99.90;;;;;;4194351;28;20036;-46
2022/04/21 05:42:23;;;;;;;7.40;7.20;;;9.90;99.90;;;;;;4194361;28;19974;-45
2022/04/21 05:44:27;;;;;;;7.43;7.13;;;10.00;99.90;;;;;;4218256;28;20347;-43
2022/04/21 05:46:29;;;;;;;7.65;7.35;;;9.90;99.90;;;;;;4196438;28;20527;-43
2022/04/21 05:48:32;;;;;;;7.60;7.35;;;10.00;99.90;;;;;;4193849;28;20048;-44
2022/04/21 05:50:34;;;;;;;;;;;10.00;99.90;;;;;;4198771;28;20140;-43
2022/04/21 05:52:38;;;;;;;6.93;6.72;;;10.00;99.90;;;;;;4216988;28;19924;-43
2022/04/21 05:54:40;;;;;;;6.85;6.57;;;10.00;99.90;;;;;;4200566;28;20131;-44
2022/04/21 05:56:43;;;;;;;;;;;10.00;99.90;;;;;;4206558;28;20044;-44
2022/04/21 05:58:45;;;;;;;6.82;6.63;;;9.90;99.90;;;;;;4193918;28;20402;-43
2022/04/21 06:00:47;;;;;;;8.90;8.18;;;10.00;99.90;;;;;;4176119;28;20037;-43
2022/04/21 06:02:56;;;;;;;7.43;7.00;;;10.00;99.90;;;;;;4193510;28;20040;-43
2022/04/21 06:04:59;;;;;;;7.32;7.15;;;10.00;99.90;;;;;;4195029;28;20119;-44
2022/04/21 06:07:01;;;;;;;7.43;6.90;;;9.90;99.90;;;;;;4193095;28;20118;-43
2022/04/21 06:09:03;;;;;;;7.28;7.05;;;10.00;99.90;;;;;;4191752;28;20095;-44
2022/04/21 06:11:06;;;;;;;7.28;7.07;;;10.00;99.90;;;;;;4194697;28;20072;-44
2022/04/21 06:13:08;;;;;;;8.48;7.90;;;10.00;99.90;;;;;;4203806;28;20052;-44
2022/04/21 06:15:10;;;;;;;8.35;8.07;;;10.10;99.90;;;;;;4193210;28;20110;-43
2022/04/21 06:17:12;;;;;;;9.18;8.73;;;10.10;99.90;;;;;;4194468;28;20037;-43
2022/04/21 06:19:14;;;;;;;8.77;8.38;;;10.10;99.90;;;;;;4209835;28;20044;-44
2022/04/21 06:21:16;;;;;;;11.00;10.20;;;10.10;99.90;;;;;;4193540;28;20098;-43
2022/04/21 06:23:20;;;;;;;12.13;11.30;;;10.10;99.90;;;;;;4193646;28;20048;-45
2022/04/21 06:25:22;;;;;;;11.43;10.73;;;10.10;99.90;;;;;;4193782;28;20495;-43
2022/04/21 06:27:25;;;;;;;10.85;10.20;;;10.10;99.90;;;;;;4193388;28;20743;-44
2022/04/21 06:29:27;;;;;;;11.27;10.55;;;10.10;99.90;;;;;;4193492;28;20091;-43
2022/04/21 06:31:30;;;;;;;9.48;8.98;;;10.10;99.90;;;;;;4193329;28;20045;-42
2022/04/21 06:33:33;;;;;;;11.07;10.43;;;10.10;99.90;;;;;;4193289;28;20041;-45
2022/04/21 06:35:35;;;;;;;11.35;10.75;;;10.10;99.90;;;;;;4193390;28;20044;-43
2022/04/21 06:37:37;;;;;;;9.80;9.13;;;10.20;99.90;;;;;;4193632;28;20040;-44
2022/04/21 06:39:39;;;;;;;10.90;10.27;;;10.20;99.90;;;;;;4193711;28;20041;-43
2022/04/21 06:41:41;;;;;;;10.20;9.77;;;10.20;99.90;;;;;;4193392;28;20037;-44
2022/04/21 06:48:25;;;;;;;10.25;9.45;;;10.30;99.90;;;;;;4197864;28;20051;-44
2022/04/21 06:50:27;;;;;;;9.93;9.45;;;10.30;99.90;;;;;;4193456;28;20308;-44
2022/04/21 06:52:32;;;;;;;10.07;9.70;;;10.30;99.90;;;;;;4193160;28;20411;-43
2022/04/21 06:54:34;;;;;;;9.75;9.35;;;10.30;99.90;;;;;;4193431;28;20076;-44
2022/04/21 06:56:36;;;;;;;8.68;8.15;;;10.20;99.90;;;;;;4192359;28;20041;-43
2022/04/21 06:58:40;;;;;;;10.68;9.90;;;10.20;99.90;;;;;;4192983;28;20102;-44
2022/04/21 07:00:43;;;;;;;9.60;8.98;;;10.20;99.90;;;;;;4193231;28;20048;-44
2022/04/21 07:02:45;;;;;;;9.43;8.82;;;10.20;99.90;;;;;;4195017;28;20573;-42
2022/04/21 07:04:48;;;;;;;9.32;8.73;;;10.20;99.90;;;;;;4196541;28;20117;-42
2022/04/21 07:06:51;;;;;;;8.35;7.82;;;10.10;99.90;;;;;;4196481;28;20044;-45
2022/04/21 07:08:53;;;;;;;10.73;10.27;;;10.20;99.90;;;;;;4205549;28;20041;-43
2022/04/21 07:10:55;;;;;;;9.70;9.25;;;10.20;99.90;;;;;;4196326;28;20101;-43
2022/04/21 07:12:57;;;;;;;8.60;8.10;;;10.20;99.90;;;;;;4206545;28;20045;-43
2022/04/21 07:15:01;;;;;;;9.55;8.95;;;10.20;99.90;;;;;;4196635;28;20037;-43
2022/04/21 07:17:04;;;;;;;10.55;10.18;;;10.20;99.90;;;;;;4196807;28;20047;-44
2022/04/21 07:19:06;;;;;;;8.57;8.02;;;10.30;99.90;;;;;;4229527;28;20050;-42
2022/04/21 07:21:09;;;;;;;9.13;8.55;;;10.30;99.90;;;;;;4195947;28;20036;-43
2022/04/21 07:23:11;;;;;;;9.93;9.50;;;10.30;99.90;;;;;;4196552;28;20036;-42
2022/04/21 07:25:14;;;;;;;7.88;7.50;;;10.40;99.90;;;;;;4196400;28;20041;-43
2022/04/21 07:27:16;;;;;;;9.38;8.73;;;10.40;99.90;;;;;;4197676;28;20036;-44
2022/04/21 07:29:18;;;;;;;9.02;8.68;;;10.40;99.90;;;;;;4197489;28;20047;-45
2022/04/21 07:31:20;;;;;;;10.18;9.55;;;10.40;99.90;;;;;;4195907;28;20048;-44
2022/04/21 07:33:22;;;;;;;;;;;10.30;99.90;;;;;;4197742;28;20427;-42
2022/04/21 07:35:25;;;;;;;8.87;8.47;;;10.40;99.90;;;;;;4196292;28;19932;-43
2022/04/21 07:37:36;;;;;;;10.40;9.77;;;10.30;99.90;;;;;;4196772;28;20302;-44
2022/04/21 07:39:42;;;;;;;10.50;9.90;;;10.30;99.90;;;;;;4195915;28;20032;-44
2022/04/21 07:41:46;;;;;;;10.77;10.18;;;10.20;99.90;;;;;;4196134;28;20060;-43
2022/04/21 07:43:51;;;;;;;9.40;8.85;;;10.20;99.90;;;;;;4213880;28;20170;-44
2022/04/21 07:45:55;;;;;;;10.98;10.13;;;10.30;99.90;;;;;;4203828;28;20443;-43
2022/04/21 07:47:57;;;;;;;8.48;7.97;;;10.30;99.90;;;;;;4197300;28;20055;-43
2022/04/21 07:49:59;;;;;;;7.75;7.55;;;10.40;99.90;;;;;;4206675;28;20056;-45
2022/04/21 07:54:22;;;;;;;7.53;7.32;;;10.40;99.90;;;;;;4196281;28;20105;-45
2022/04/21 07:56:24;;;;;;;7.97;7.68;;;10.40;99.90;;;;;;4195828;28;20549;-44
2022/04/21 07:58:27;;;;;;;7.53;7.30;;;10.40;99.90;;;;;;4196775;28;20036;-43
2022/04/21 08:00:29;;;;;;;7.97;7.57;;;10.40;99.90;;;;;;4195800;28;20044;-45
2022/04/21 08:02:31;;;;;;;8.95;8.65;;;10.40;99.90;;;;;;4195599;28;20052;-43
2022/04/21 08:04:40;;;;;;;;;;;10.50;99.90;;;;;;4194765;28;20047;-42
2022/04/21 08:06:42;;;;;;;10.35;9.75;;;10.50;99.90;;;;;;4195436;28;20536;-44
2022/04/21 08:08:44;;;;;;;9.57;9.18;;;10.60;99.90;;;;;;4199695;28;20377;-43
2022/04/21 08:10:46;;;;;;;9.13;8.93;;;10.60;99.90;;;;;;4195300;28;20447;-43
2022/04/21 08:12:52;;;;;;;9.77;9.25;;;10.60;99.90;;;;;;4204421;28;20518;-44
2022/04/21 08:14:55;;;;;;;10.80;10.40;;;10.70;99.90;;;;;;4194468;28;20241;-43
2022/04/21 08:16:58;;;;;;;9.23;8.55;;;10.80;99.90;;;;;;4195476;28;20040;-44
2022/04/21 08:19:00;;;;;;;7.90;7.40;;;10.80;99.90;;;;;;4196690;28;20317;-43
2022/04/21 08:21:02;;;;;;;7.85;7.45;;;10.80;99.90;;;;;;4195315;28;20040;-43
2022/04/21 08:23:25;;;;;;;8.05;7.68;;;10.80;99.90;;;;;;4195269;28;20105;-43
2022/04/21 08:32:49;;;;;;;6.88;6.57;;;11.10;99.90;;;;;;4195467;28;20075;-43
2022/04/21 08:34:51;;;;;;;8.43;7.95;;;11.00;99.90;;;;;;4194881;28;20100;-44
2022/04/21 08:37:00;;;;;;;8.57;8.27;;;11.00;99.90;;;;;;4195113;28;20098;-44
2022/04/21 08:39:03;;;;;;;9.68;9.18;;;11.10;99.90;;;;;;4194991;28;20373;-42
2022/04/21 08:41:15;;;;;;;8.15;7.90;;;11.10;99.90;;;;;;4196097;28;20039;-44
2022/04/21 08:43:18;;;;;;;9.88;9.10;;;11.20;99.90;;;;;;4199833;28;20119;-43
2022/04/21 08:45:22;;;;;;;10.45;9.75;;;11.20;99.90;;;;;;4208751;28;20056;-44
2022/04/21 08:47:28;;;;;;;8.98;8.57;;;11.20;99.90;;;;;;4195252;28;20037;-43
2022/04/21 08:49:33;;;;;;;8.95;8.55;;;11.20;99.90;;;;;;4197754;28;20037;-44
2022/04/21 08:51:36;;;;;;;8.70;8.35;;;11.30;99.90;;;;;;4221272;28;20123;-43
2022/04/21 08:53:38;;;;;;;8.98;8.70;;;11.20;99.90;;;;;;4194647;28;20075;-44
2022/04/21 08:55:40;;;;;;;9.88;9.48;;;11.20;99.90;;;;;;4194868;28;20044;-46
2022/04/21 08:57:43;;;;;;;9.07;8.57;;;11.30;99.90;;;;;;4195195;28;20072;-45
2022/04/21 08:59:45;;;;;;;10.90;10.18;;;11.40;99.90;;;;;;4194466;28;20517;-44
2022/04/21 09:01:47;;;;;;;8.07;7.78;;;11.50;99.90;;;;;;4194948;28;20066;-50
2022/04/21 09:03:49;;;;;;;8.25;7.85;;;11.70;99.90;;;;;;4194739;28;20033;-44
2022/04/21 09:05:51;;;;;;;7.82;7.63;;;11.90;99.90;;;;;;4194643;28;20094;-45
2022/04/21 09:07:53;;;;;;;6.57;6.30;;;12.00;99.90;;;;;;4196957;28;20033;-44
2022/04/21 09:10:19;;;;;;;6.60;6.45;;;12.10;99.90;;;;;;4194337;28;20049;-44
2022/04/21 09:12:22;;;;;;;5.95;5.75;;;12.20;99.90;;;;;;4198312;28;20052;-44
2022/04/21 09:14:24;;;;;;;4.57;4.22;;;12.20;99.90;;;;;;4195777;28;20044;-43
2022/04/21 09:16:33;;;;;;;4.85;4.65;;;12.30;99.90;;;;;;4194813;28;20055;-43
2022/04/21 09:18:43;;;;;;;4.47;4.38;;;12.40;99.90;;;;;;4204831;28;20044;-44
2022/04/21 09:20:53;;;;;;;5.50;5.40;;;12.40;99.90;;;;;;4194565;28;20055;-44
2022/04/21 09:23:00;;;;;;;3.47;3.38;;;12.70;99.90;;;;;;4194395;28;20495;-45
2022/04/21 09:25:02;;;;;;;2.85;2.65;;;12.90;99.90;;;;;;4194315;28;20361;-44
2022/04/21 09:27:06;;;;;;;2.30;2.20;;;13.00;99.90;;;;;;4193378;28;20420;-45
2022/04/21 09:29:13;;;;;;;3.10;3.10;;;13.10;99.90;;;;;;4191813;28;20041;-47
2022/04/21 09:31:16;;;;;;;1.88;1.88;;;13.30;99.90;;;;;;4197372;28;20394;-45
2022/04/21 09:33:32;;;;;;;2.28;2.17;;;13.30;99.90;;;;;;4197486;28;20085;-46
2022/04/21 09:35:37;;;;;;;2.35;2.25;;;13.30;99.90;;;;;;4209458;28;20075;-45
2022/04/21 09:37:46;;;;;;;2.10;2.10;;;13.40;99.90;;;;;;4213885;28;20111;-47
2022/04/21 09:39:52;;;;;;;2.90;2.78;;;13.60;99.90;;;;;;4194176;28;20036;-47
2022/04/21 09:41:55;;;;;;;2.00;1.92;;;13.90;99.90;;;;;;4194945;28;20033;-45
2022/04/21 09:46:40;;;;;;;2.35;2.25;;;14.20;99.90;;;;;;4195737;28;20036;-46
2022/04/21 09:48:44;;;;;;;1.90;1.80;;;14.30;99.90;;;;;;4196605;28;20042;-44
2022/04/21 09:50:51;;;;;;;2.13;2.03;;;14.20;99.90;;;;;;4202032;28;20123;-45
2022/04/21 09:52:54;;;;;;;4.00;2.45;;;14.30;99.90;;;;;;4199031;28;20053;-44
2022/04/21 09:54:56;;;;;;;2.35;2.35;;;14.30;99.90;;;;;;4199493;28;20039;-47
2022/04/21 09:56:58;;;;;;;2.13;2.13;;;14.80;99.90;;;;;;4194648;28;20094;-45
2022/04/21 09:59:09;;;;;;;1.65;1.65;;;15.00;99.90;;;;;;4200774;28;20082;-45
2022/04/21 10:01:11;;;;;;;2.20;1.35;;;15.30;99.90;;;;;;4193252;28;20475;-45
2022/04/21 10:03:13;;;;;;;1.15;1.10;;;15.50;99.90;;;;;;4193790;28;20044;-44
2022/04/21 10:05:16;;;;;;;1.27;1.17;;;15.70;99.90;;;;;;4191599;28;20052;-44
2022/04/21 10:07:19;;;;;;;1.73;1.73;;;15.50;99.90;;;;;;4207006;28;20115;-45
2022/04/21 10:09:22;;;;;;;1.05;1.05;;;15.70;99.90;;;;;;4197578;28;20028;-46
2022/04/21 10:11:27;;;;;;;1.00;1.00;;;15.70;99.90;;;;;;4198533;28;20036;-45
2022/04/21 10:13:30;;;;;;;2.15;1.00;;;15.60;99.90;;;;;;4197896;28;20147;-47
2022/04/21 10:15:36;;;;;;;1.65;0.90;;;15.70;99.90;;;;;;4197918;28;20032;-46
2022/04/21 10:17:38;;;;;;;0.80;0.80;;;15.90;99.90;;;;;;4197675;28;20110;-46
2022/04/21 10:19:40;;;;;;;0.90;0.90;;;16.00;99.90;;;;;;4203092;28;20066;-45
2022/04/21 10:21:49;;;;;;;0.88;0.88;;;16.30;99.90;;;;;;4195652;28;20041;-47
2022/04/21 10:23:53;;;;;;;1.05;0.80;;;16.40;99.90;;;;;;4195849;28;20399;-44
2022/04/21 10:26:00;;;;;;;0.80;0.80;;;16.50;99.90;;;;;;4193254;28;20127;-48
2022/04/21 10:28:36;;;;;;;0.80;0.80;;;16.70;99.90;;;;;;4194479;28;20364;-45
2022/04/21 10:30:39;;;;;;;0.80;0.80;;;16.60;99.90;;;;;;4195360;28;20500;-46
2022/04/21 10:32:54;;;;;;;;;;;16.60;99.90;;;;;;4199566;28;20044;-47
2022/04/21 10:34:57;;;;;;;0.70;0.70;;;16.50;99.90;;;;;;4191720;28;19928;-45
2022/04/21 10:37:19;;;;;;;0.80;0.80;;;16.70;99.90;;;;;;4196172;28;20484;-46
2022/04/21 10:39:25;;;;;;;1.40;1.30;;;16.70;99.90;;;;;;4193452;28;20068;-47
2022/04/21 10:41:37;;;;;;;0.70;0.70;;;16.70;99.90;;;;;;4193541;28;20097;-47
2022/04/21 10:43:48;;;;;;;0.80;0.80;;;16.80;99.90;;;;;;4204159;28;20064;-48
2022/04/21 10:46:07;;;;;;;0.80;0.80;;;16.50;99.90;;;;;;4193060;28;20078;-47
2022/04/21 10:48:12;;;;;;;1.38;0.95;;;16.50;99.90;;;;;;4200246;28;20078;-46
2022/04/21 10:50:19;;;;;;;0.93;0.80;;;16.50;99.90;;;;;;4196257;28;20380;-48
2022/04/21 10:57:15;;;;;;;0.80;0.80;;;16.40;99.90;;;;;;4193903;28;20070;-46
2022/04/21 10:59:18;;;;;;;0.80;0.80;;;16.40;99.90;;;;;;4208835;28;20493;-47
2022/04/21 11:01:23;;;;;;;0.95;0.90;;;16.40;99.90;;;;;;4195187;28;20045;-47
2022/04/21 11:03:26;;;;;;;0.80;0.80;;;16.30;99.90;;;;;;4193643;28;20036;-48
2022/04/21 11:05:35;;;;;;;0.80;0.80;;;16.20;99.90;;;;;;4204077;28;20041;-45
2022/04/21 11:07:54;;;;;;;0.80;0.80;;;16.30;99.90;;;;;;4202701;28;20518;-46
2022/04/21 11:09:56;;;;;;;0.90;0.90;;;16.20;99.90;;;;;;4209535;28;20135;-45
2022/04/21 11:12:43;;;;;;;0.90;0.90;;;16.10;99.90;;;;;;4195458;28;20446;-45
2022/04/21 11:14:45;;;;;;;1.23;1.23;;;16.00;99.90;;;;;;4193239;28;20074;-46
2022/04/21 11:16:48;;;;;;;0.90;0.90;;;16.10;99.90;;;;;;4193104;28;20041;-45
2022/04/21 11:18:50;;;;;;;1.67;1.13;;;16.00;99.90;;;;;;4207553;28;20041;-46
2022/04/21 11:21:12;;;;;;;0.80;0.80;;;15.80;99.90;;;;;;4199811;28;20048;-45
2022/04/21 11:23:29;;;;;;;1.00;1.00;;;15.80;99.90;;;;;;4197460;28;20491;-45
2022/04/21 11:25:32;;;;;;;1.27;1.27;;;15.70;99.90;;;;;;4200397;28;20132;-45
2022/04/21 11:27:41;;;;;;;1.23;1.00;;;15.70;99.90;;;;;;4199327;28;20040;-47
2022/04/21 11:29:44;;;;;;;0.90;0.90;;;15.70;99.90;;;;;;4195524;28;20045;-46
2022/04/21 11:31:46;;;;;;;0.90;0.90;;;15.70;99.90;;;;;;4208202;28;20445;-45